createdAt,value
2022-07-25T00:02:27.351Z,8.17
2022-07-25T00:04:55.849Z,12.53
2022-07-25T00:07:24.201Z,14.30
2022-07-25T00:09:52.417Z,12.07
2022-07-25T00:12:21.376Z,12.70
2022-07-25T00:14:50.917Z,13.70
2022-07-25T00:17:19.162Z,11.30
2022-07-25T00:19:47.419Z,11.83
2022-07-25T00:22:15.445Z,8.50
2022-07-25T00:24:43.615Z,11.90
2022-07-25T00:27:11.762Z,10.67
2022-07-25T00:29:39.753Z,8.73
2022-07-25T00:32:09.319Z,11.20
2022-07-25T00:34:37.763Z,11.37
2022-07-25T00:37:05.917Z,12.17
2022-07-25T00:39:35.729Z,8.93
2022-07-25T00:42:07.710Z,10.40
2022-07-25T00:44:36.080Z,11.73
2022-07-25T00:47:04.300Z,9.03
2022-07-25T00:49:34.019Z,13.73
2022-07-25T00:52:02.497Z,7.27
2022-07-25T00:54:31.009Z,21.30
2022-07-25T00:56:59.139Z,10.63
2022-07-25T00:59:27.332Z,8.43
2022-07-25T01:01:55.790Z,9.40
2022-07-25T01:04:23.968Z,10.23
2022-07-25T01:06:53.849Z,12.20
2022-07-25T01:09:22.019Z,16.40
2022-07-25T01:11:50.183Z,15.60
2022-07-25T01:14:18.367Z,9.60
2022-07-25T01:16:46.447Z,7.43
2022-07-25T01:19:14.517Z,8.33
2022-07-25T01:21:44.045Z,9.03
2022-07-25T01:24:12.484Z,7.63
2022-07-25T01:26:41.071Z,10.63
2022-07-25T01:29:09.352Z,12.07
2022-07-25T01:31:37.436Z,11.00
2022-07-25T01:34:05.810Z,9.47
2022-07-25T01:36:34.322Z,11.40
2022-07-25T01:39:03.770Z,10.57
2022-07-25T01:41:32.001Z,12.37
2022-07-25T01:44:00.173Z,7.57
2022-07-25T01:46:28.298Z,6.20
2022-07-25T01:48:56.492Z,8.67
2022-07-25T01:51:26.540Z,11.47
2022-07-25T01:53:54.463Z,8.23
2022-07-25T01:56:24.126Z,6.20
2022-07-25T01:58:52.295Z,8.87
2022-07-25T02:01:22.032Z,8.27
2022-07-25T02:03:51.204Z,7.97
2022-07-25T02:06:19.639Z,8.07
2022-07-25T02:08:47.849Z,8.10
2022-07-25T02:11:16.056Z,7.63
2022-07-25T02:13:45.981Z,7.47
2022-07-25T02:16:14.141Z,8.47
2022-07-25T02:18:42.237Z,10.00
2022-07-25T02:21:14.580Z,9.37
2022-07-25T02:23:43.597Z,9.70
2022-07-25T02:26:12.932Z,8.00
2022-07-25T02:28:41.141Z,9.53
2022-07-25T02:31:10.911Z,8.67
2022-07-25T02:33:39.420Z,8.57
2022-07-25T02:36:08.464Z,10.73
2022-07-25T02:38:36.851Z,11.70
2022-07-25T02:41:06.623Z,10.77
2022-07-25T02:43:34.684Z,8.70
2022-07-25T02:46:02.912Z,7.83
2022-07-25T02:48:32.567Z,11.43
2022-07-25T02:51:00.790Z,10.47
2022-07-25T02:53:55.487Z,14.40
2022-07-25T02:56:17.035Z,12.07
2022-07-25T02:58:45.592Z,14.43
2022-07-25T03:01:13.757Z,9.63
2022-07-25T03:03:43.476Z,15.13
2022-07-25T03:06:11.496Z,15.73
2022-07-25T03:08:39.562Z,11.47
2022-07-25T03:11:08.265Z,10.87
2022-07-25T03:13:36.593Z,12.57
2022-07-25T03:16:04.934Z,12.57
2022-07-25T03:18:33.296Z,12.20
2022-07-25T03:21:03.118Z,12.33
2022-07-25T03:23:31.150Z,15.13
2022-07-25T03:25:59.581Z,10.83
2022-07-25T03:28:27.694Z,12.43
2022-07-25T03:30:55.715Z,14.67
2022-07-25T03:33:23.901Z,11.23
2022-07-25T03:35:52.089Z,14.30
2022-07-25T03:38:21.427Z,10.63
2022-07-25T03:40:49.703Z,10.93
2022-07-25T03:43:17.872Z,11.20
2022-07-25T03:45:46.097Z,11.90
2022-07-25T03:48:14.415Z,15.80
2022-07-25T03:50:42.558Z,13.37
2022-07-25T03:53:10.578Z,11.00
2022-07-25T03:55:41.045Z,11.77
2022-07-25T03:58:09.173Z,12.87
2022-07-25T04:00:37.270Z,9.87
2022-07-25T04:03:05.730Z,12.33
2022-07-25T04:05:33.912Z,13.77
2022-07-25T04:08:02.020Z,14.47
2022-07-25T04:10:30.130Z,9.93
2022-07-25T04:12:59.697Z,11.77
2022-07-25T04:15:27.978Z,14.57
2022-07-25T04:17:58.608Z,11.77
2022-07-25T04:20:27.329Z,14.13
2022-07-25T04:22:55.282Z,13.40
2022-07-25T04:25:23.772Z,16.53
2022-07-25T04:27:51.915Z,15.90
2022-07-25T04:30:23.843Z,13.20
2022-07-25T04:32:53.555Z,13.63
2022-07-25T04:35:21.736Z,17.00
2022-07-25T04:37:49.991Z,19.40
2022-07-25T04:40:18.318Z,16.90
2022-07-25T04:42:46.352Z,18.63
2022-07-25T04:45:14.507Z,16.90
2022-07-25T04:47:47.989Z,18.37
2022-07-25T04:50:18.073Z,21.33
2022-07-25T04:52:47.898Z,22.53
2022-07-25T04:55:16.068Z,17.03
2022-07-25T04:57:44.199Z,16.13
2022-07-25T05:00:13.093Z,13.83
2022-07-25T05:02:41.725Z,16.03
2022-07-25T05:05:21.446Z,14.90
2022-07-25T05:07:50.473Z,15.20
2022-07-25T05:10:18.754Z,17.70
2022-07-25T05:12:46.734Z,16.90
2022-07-25T05:15:15.112Z,15.90
2022-07-25T05:17:43.225Z,17.70
2022-07-25T05:20:13.555Z,16.30
2022-07-25T05:22:42.396Z,15.83
2022-07-25T05:25:12.279Z,14.10
2022-07-25T05:27:41.021Z,13.57
2022-07-25T05:30:11.608Z,13.40
2022-07-25T05:32:40.554Z,14.60
2022-07-25T05:35:10.509Z,16.23
2022-07-25T05:37:40.209Z,14.30
2022-07-25T05:40:09.062Z,18.33
2022-07-25T05:42:37.348Z,20.37
2022-07-25T05:45:06.844Z,15.37
2022-07-25T05:47:35.033Z,16.87
2022-07-25T05:50:03.496Z,14.00
2022-07-25T05:52:31.924Z,19.10
2022-07-25T05:55:01.301Z,13.90
2022-07-25T05:57:29.433Z,17.63
2022-07-25T05:59:58.260Z,11.47
2022-07-25T06:02:26.319Z,11.70
2022-07-25T06:04:54.583Z,14.07
2022-07-25T06:07:22.730Z,11.33
2022-07-25T06:09:50.657Z,14.37
2022-07-25T06:12:20.248Z,14.60
2022-07-25T06:14:52.509Z,16.80
2022-07-25T06:17:20.560Z,12.53
2022-07-25T06:19:48.660Z,10.37
2022-07-25T06:22:16.798Z,14.20
2022-07-25T06:24:44.970Z,16.70
2022-07-25T06:27:16.066Z,13.13
2022-07-25T06:29:49.714Z,14.03
2022-07-25T06:32:18.382Z,12.80
2022-07-25T06:34:46.365Z,11.30
2022-07-25T06:37:14.772Z,13.47
2022-07-25T06:39:45.877Z,14.67
2022-07-25T06:42:14.336Z,13.70
2022-07-25T06:44:42.910Z,11.77
2022-07-25T06:47:13.623Z,11.33
2022-07-25T06:49:41.948Z,11.33
2022-07-25T06:52:10.733Z,11.80
2022-07-25T06:54:38.942Z,11.17
2022-07-25T06:57:07.057Z,10.70
2022-07-25T06:59:35.521Z,7.80
2022-07-25T07:02:03.787Z,7.10
2022-07-25T07:04:33.179Z,15.67
2022-07-25T07:07:01.385Z,13.33
2022-07-25T07:09:29.371Z,13.50
2022-07-25T07:11:57.388Z,10.43
2022-07-25T07:14:27.073Z,11.97
2022-07-25T07:16:55.174Z,10.43
2022-07-25T07:19:23.368Z,10.97
2022-07-25T07:21:53.887Z,9.30
2022-07-25T07:24:24.557Z,9.47
2022-07-25T07:26:53.591Z,8.77
2022-07-25T07:29:22.436Z,11.27
2022-07-25T07:31:50.747Z,11.23
2022-07-25T07:34:19.186Z,10.33
2022-07-25T07:36:47.687Z,12.43
2022-07-25T07:39:17.690Z,12.20
2022-07-25T07:41:45.896Z,11.60
2022-07-25T07:44:14.071Z,12.87
2022-07-25T07:46:53.344Z,7.20
2022-07-25T07:49:22.539Z,10.00
2022-07-25T07:51:50.674Z,7.87
2022-07-25T07:54:37.634Z,11.03
2022-07-25T07:57:05.967Z,10.50
2022-07-25T07:59:34.086Z,12.33
2022-07-25T08:02:02.310Z,10.83
2022-07-25T08:04:30.495Z,11.00
2022-07-25T08:06:58.661Z,6.43
2022-07-25T08:09:28.223Z,8.70
2022-07-25T08:11:56.501Z,11.40
2022-07-25T08:14:24.471Z,10.17
2022-07-25T08:16:53.082Z,8.93
2022-07-25T08:19:21.221Z,8.57
2022-07-25T08:21:49.286Z,8.33
2022-07-25T08:24:17.470Z,8.50
2022-07-25T08:26:47.380Z,8.33
2022-07-25T08:29:20.132Z,10.77
2022-07-25T08:31:50.509Z,10.10
2022-07-25T08:34:19.610Z,7.27
2022-07-25T08:36:47.820Z,9.00
2022-07-25T08:39:16.155Z,8.20
2022-07-25T08:41:44.590Z,10.13
2022-07-25T08:44:15.557Z,9.23
2022-07-25T08:46:45.012Z,5.93
2022-07-25T08:49:13.839Z,8.63
2022-07-25T08:51:42.548Z,8.67
2022-07-25T08:54:12.110Z,7.60
2022-07-25T08:56:42.532Z,8.90
2022-07-25T08:59:11.000Z,6.73
2022-07-25T09:01:42.303Z,8.57
2022-07-25T09:04:11.215Z,8.80
2022-07-25T09:06:52.056Z,11.13
2022-07-25T09:09:30.541Z,7.27
2022-07-25T09:11:58.861Z,10.20
2022-07-25T09:14:27.061Z,8.77
2022-07-25T09:16:57.791Z,10.93
2022-07-25T09:19:27.457Z,13.90
2022-07-25T09:22:03.700Z,7.97
2022-07-25T09:24:32.781Z,10.37
2022-07-25T09:27:02.879Z,8.23
2022-07-25T09:29:33.553Z,8.17
2022-07-25T09:32:14.667Z,9.27
2022-07-25T09:34:44.974Z,10.30
2022-07-25T09:37:14.984Z,8.40
2022-07-25T09:39:47.117Z,10.33
2022-07-25T09:42:21.865Z,9.27
2022-07-25T09:45:06.003Z,9.53
2022-07-25T09:47:38.252Z,10.43
2022-07-25T09:50:08.461Z,10.80
2022-07-25T09:52:39.344Z,8.67
2022-07-25T09:55:10.466Z,6.83
2022-07-25T09:57:41.805Z,7.97
2022-07-25T10:00:14.954Z,10.17
2022-07-25T10:02:53.951Z,6.27
2022-07-25T10:05:38.327Z,6.40
2022-07-25T10:08:08.736Z,8.67
2022-07-25T10:10:41.386Z,11.73
2022-07-25T10:13:12.015Z,10.13
2022-07-25T10:15:48.342Z,9.27
2022-07-25T10:18:20.176Z,9.13
2022-07-25T10:20:50.257Z,10.23
2022-07-25T10:23:20.246Z,12.27
2022-07-25T10:25:49.253Z,12.37
2022-07-25T10:28:21.237Z,10.23
2022-07-25T10:30:59.326Z,11.07
2022-07-25T10:33:29.040Z,11.00
2022-07-25T10:36:07.515Z,12.33
2022-07-25T10:38:36.035Z,14.20
2022-07-25T10:41:05.874Z,13.00
2022-07-25T10:43:39.153Z,14.93
2022-07-25T10:46:14.325Z,10.80
2022-07-25T10:48:44.372Z,18.33
2022-07-25T10:51:15.498Z,14.63
2022-07-25T10:53:46.785Z,15.30
2022-07-25T10:56:16.501Z,14.53
2022-07-25T10:58:50.762Z,17.07
2022-07-25T11:01:24.580Z,12.00
2022-07-25T11:03:59.033Z,12.53
2022-07-25T11:06:36.344Z,13.60
2022-07-25T11:09:06.453Z,15.37
2022-07-25T11:11:38.036Z,15.10
2022-07-25T11:14:07.005Z,11.43
2022-07-25T11:16:35.583Z,9.83
2022-07-25T11:19:05.702Z,10.50
2022-07-25T11:21:34.156Z,8.17
2022-07-25T11:24:02.298Z,7.37
2022-07-25T11:26:30.548Z,7.83
2022-07-25T11:28:58.746Z,8.67
2022-07-25T11:31:27.912Z,11.07
2022-07-25T11:33:56.011Z,14.47
2022-07-25T11:36:25.688Z,12.47
2022-07-25T11:38:54.133Z,13.97
2022-07-25T11:41:30.272Z,19.27
2022-07-25T11:43:58.719Z,15.60
2022-07-25T11:46:27.284Z,15.40
2022-07-25T11:49:06.495Z,17.43
2022-07-25T11:51:41.862Z,9.50
2022-07-25T11:54:13.364Z,11.00
2022-07-25T11:56:43.468Z,17.90
2022-07-25T11:59:12.626Z,12.67
2022-07-25T12:01:42.421Z,14.00
2022-07-25T12:04:12.273Z,9.83
2022-07-25T12:06:42.433Z,9.03
2022-07-25T12:09:18.824Z,10.97
2022-07-25T12:11:49.137Z,10.83
2022-07-25T12:14:18.142Z,12.40
2022-07-25T12:16:46.294Z,13.50
2022-07-25T12:19:23.000Z,19.97
2022-07-25T12:21:52.512Z,18.83
2022-07-25T12:24:20.561Z,13.73
2022-07-25T12:26:48.821Z,14.83
2022-07-25T12:29:16.910Z,15.87
2022-07-25T12:31:44.873Z,17.27
2022-07-25T12:34:12.926Z,18.90
2022-07-25T12:36:45.135Z,15.37
2022-07-25T12:39:14.830Z,17.83
2022-07-25T12:41:43.210Z,20.27
2022-07-25T12:44:14.061Z,21.27
2022-07-25T12:46:48.820Z,23.80
2022-07-25T12:49:18.090Z,16.70
2022-07-25T12:51:46.519Z,14.57
2022-07-25T12:54:22.043Z,15.53
2022-07-25T12:56:50.801Z,14.43
2022-07-25T12:59:18.823Z,16.57
2022-07-25T13:01:47.041Z,11.63
2022-07-25T13:04:15.534Z,16.83
2022-07-25T13:06:43.695Z,12.83
2022-07-25T13:09:12.047Z,16.97
2022-07-25T13:11:42.652Z,15.47
2022-07-25T13:14:11.025Z,14.93
2022-07-25T13:16:39.384Z,12.77
2022-07-25T13:19:08.974Z,11.23
2022-07-25T13:21:37.871Z,14.87
2022-07-25T13:24:07.213Z,15.20
2022-07-25T13:26:36.409Z,11.07
2022-07-25T13:29:08.857Z,9.37
2022-07-25T13:31:42.466Z,9.87
2022-07-25T13:34:11.588Z,11.57
2022-07-25T13:36:40.622Z,8.70
2022-07-25T13:39:09.270Z,7.77
2022-07-25T13:41:37.841Z,9.20
2022-07-25T13:44:08.152Z,8.53
2022-07-25T13:46:37.042Z,8.00
2022-07-25T13:49:05.648Z,7.50
2022-07-25T13:51:34.153Z,7.60
2022-07-25T13:54:02.348Z,9.80
2022-07-25T13:56:30.579Z,8.43
2022-07-25T13:58:58.907Z,8.40
2022-07-25T14:01:28.899Z,5.73
2022-07-25T14:03:57.134Z,6.93
2022-07-25T14:06:25.292Z,8.53
2022-07-25T14:08:53.352Z,9.60
2022-07-25T14:11:21.454Z,10.23
2022-07-25T14:13:49.785Z,8.10
2022-07-25T14:16:20.350Z,9.03
2022-07-25T14:18:50.821Z,8.67
2022-07-25T14:21:19.018Z,10.03
2022-07-25T14:23:47.240Z,7.90
2022-07-25T14:26:15.558Z,7.13
2022-07-25T14:28:43.759Z,6.93
2022-07-25T14:31:12.853Z,7.80
2022-07-25T14:33:41.277Z,6.07
2022-07-25T14:36:11.437Z,7.90
2022-07-25T14:38:41.632Z,9.63
2022-07-25T14:41:13.039Z,8.40
2022-07-25T14:43:41.646Z,7.50
2022-07-25T14:46:10.174Z,7.13
2022-07-25T14:48:39.462Z,8.57
2022-07-25T14:51:08.877Z,5.60
2022-07-25T14:53:38.705Z,6.33
2022-07-25T14:56:07.938Z,5.77
2022-07-25T14:58:41.126Z,7.77
2022-07-25T15:01:10.222Z,7.57
2022-07-25T15:03:38.905Z,5.60
2022-07-25T15:06:10.074Z,4.53
2022-07-25T15:08:40.314Z,5.03
2022-07-25T15:11:08.344Z,5.10
2022-07-25T15:13:36.838Z,5.00
2022-07-25T15:16:06.503Z,4.27
2022-07-25T15:18:52.183Z,4.47
2022-07-25T15:21:22.951Z,5.07
2022-07-25T15:23:54.136Z,6.77
2022-07-25T15:26:22.277Z,5.17
2022-07-25T15:28:51.000Z,4.57
2022-07-25T15:31:21.131Z,4.33
2022-07-25T15:33:49.239Z,7.87
2022-07-25T15:36:17.608Z,3.70
2022-07-25T15:38:46.146Z,4.47
2022-07-25T15:41:15.660Z,4.10
2022-07-25T15:43:44.552Z,4.27
2022-07-25T15:46:14.073Z,4.07
2022-07-25T15:48:42.196Z,5.73
2022-07-25T15:51:10.582Z,5.17
2022-07-25T15:53:38.734Z,5.30
2022-07-25T15:56:10.540Z,5.77
2022-07-25T15:58:40.309Z,4.40
2022-07-25T16:01:08.356Z,7.10
2022-07-25T16:03:37.387Z,5.47
2022-07-25T16:06:06.059Z,4.90
2022-07-25T16:08:35.940Z,5.97
2022-07-25T16:11:05.161Z,13.37
2022-07-25T16:13:33.740Z,43.33
2022-07-25T16:16:03.144Z,4.73
2022-07-25T16:18:31.153Z,7.37
2022-07-25T16:20:59.387Z,11.27
2022-07-25T16:23:28.269Z,3.87
2022-07-25T16:25:57.219Z,5.60
2022-07-25T16:28:26.593Z,5.40
2022-07-25T16:30:54.616Z,5.63
2022-07-25T16:33:24.375Z,4.03
2022-07-25T16:35:52.762Z,4.30
2022-07-25T16:38:22.330Z,4.10
2022-07-25T16:40:50.434Z,7.33
2022-07-25T16:43:18.671Z,8.60
2022-07-25T16:45:46.927Z,8.43
2022-07-25T16:48:14.984Z,8.57
2022-07-25T16:50:44.638Z,5.03
2022-07-25T16:53:12.627Z,4.17
2022-07-25T16:55:42.198Z,5.63
2022-07-25T16:58:10.492Z,14.33
2022-07-25T17:00:39.210Z,7.73
2022-07-25T17:03:07.309Z,7.73
2022-07-25T17:05:36.640Z,10.27
2022-07-25T17:08:06.748Z,6.47
2022-07-25T17:10:34.925Z,6.40
2022-07-25T17:13:03.204Z,4.80
2022-07-25T17:15:31.803Z,5.83
2022-07-25T17:18:00.683Z,5.43
2022-07-25T17:20:29.247Z,10.00
2022-07-25T17:22:57.342Z,4.83
2022-07-25T17:25:27.230Z,7.90
2022-07-25T17:27:55.672Z,5.77
2022-07-25T17:30:23.821Z,5.60
2022-07-25T17:32:53.334Z,5.27
2022-07-25T17:35:22.214Z,5.27
2022-07-25T17:37:50.484Z,6.60
2022-07-25T17:40:18.782Z,7.10
2022-07-25T17:42:48.902Z,5.77
2022-07-25T17:45:17.646Z,4.97
2022-07-25T17:47:46.725Z,6.77
2022-07-25T17:50:17.097Z,6.93
2022-07-25T17:52:45.584Z,5.00
2022-07-25T17:55:13.898Z,5.63
2022-07-25T17:57:45.711Z,5.70
2022-07-25T18:00:16.365Z,5.00
2022-07-25T18:02:44.527Z,9.33
2022-07-25T18:05:13.001Z,8.93
2022-07-25T18:07:45.284Z,6.93
2022-07-25T18:10:14.572Z,5.60
2022-07-25T18:12:42.664Z,6.07
2022-07-25T18:15:12.803Z,6.60
2022-07-25T18:17:43.041Z,8.93
2022-07-25T18:20:12.414Z,7.97
2022-07-25T18:22:41.179Z,5.57
2022-07-25T18:25:11.871Z,6.47
2022-07-25T18:27:41.756Z,5.47
2022-07-25T18:30:11.677Z,6.17
2022-07-25T18:32:40.720Z,5.80
2022-07-25T18:35:12.105Z,6.23
2022-07-25T18:37:40.627Z,6.43
2022-07-25T18:40:10.317Z,6.13
2022-07-25T18:42:38.761Z,5.73
2022-07-25T18:45:08.144Z,5.87
2022-07-25T18:47:36.670Z,5.80
2022-07-25T18:50:05.896Z,6.97
2022-07-25T18:52:36.824Z,6.23
2022-07-25T18:55:08.318Z,5.97
2022-07-25T18:57:39.465Z,6.93
2022-07-25T19:00:09.459Z,8.23
2022-07-25T19:02:37.810Z,6.97
2022-07-25T19:05:08.567Z,6.63
2022-07-25T19:07:38.375Z,6.57
2022-07-25T19:10:08.040Z,6.60
2022-07-25T19:12:38.536Z,7.03
2022-07-25T19:15:08.211Z,5.70
2022-07-25T19:17:37.729Z,7.30
2022-07-25T19:20:07.012Z,8.47
2022-07-25T19:22:35.432Z,7.27
2022-07-25T19:25:08.606Z,6.30
2022-07-25T19:27:37.317Z,7.60
2022-07-25T19:30:07.089Z,8.23
2022-07-25T19:32:35.806Z,7.20
2022-07-25T19:35:04.592Z,7.97
2022-07-25T19:37:33.614Z,8.23
2022-07-25T19:40:02.185Z,7.93
2022-07-25T19:42:31.820Z,7.50
2022-07-25T19:45:00.178Z,8.80
2022-07-25T19:47:28.609Z,10.33
2022-07-25T19:49:57.283Z,9.97
2022-07-25T19:52:25.499Z,9.47
2022-07-25T19:54:54.755Z,10.17
2022-07-25T19:57:22.917Z,11.27
2022-07-25T19:59:52.331Z,9.00
2022-07-25T20:02:20.733Z,10.00
2022-07-25T20:04:49.040Z,8.97
2022-07-25T20:07:17.088Z,10.23
2022-07-25T20:09:47.903Z,9.67
2022-07-25T20:12:16.066Z,11.70
2022-07-25T20:14:45.064Z,15.30
2022-07-25T20:17:15.029Z,13.77
2022-07-25T20:19:43.322Z,10.30
2022-07-25T20:22:11.815Z,11.47
2022-07-25T20:24:40.721Z,9.63
2022-07-25T20:27:09.066Z,13.47
2022-07-25T20:29:37.183Z,12.53
2022-07-25T20:32:06.775Z,10.70
2022-07-25T20:34:37.463Z,13.33
2022-07-25T20:37:05.762Z,9.50
2022-07-25T20:39:34.064Z,11.70
2022-07-25T20:42:02.966Z,13.17
2022-07-25T20:44:31.313Z,12.57
2022-07-25T20:46:59.529Z,14.37
2022-07-25T20:49:27.944Z,12.10
2022-07-25T20:51:57.391Z,13.30
2022-07-25T20:54:25.597Z,15.80
2022-07-25T20:56:53.883Z,12.27
2022-07-25T20:59:21.973Z,16.00
2022-07-25T21:01:50.233Z,11.43
2022-07-25T21:04:19.092Z,14.77
2022-07-25T21:06:47.315Z,11.43
2022-07-25T21:09:18.214Z,10.57
2022-07-25T21:11:46.379Z,14.73
2022-07-25T21:14:14.748Z,9.17
2022-07-25T21:16:43.034Z,12.33
2022-07-25T21:19:11.688Z,8.97
2022-07-25T21:21:40.057Z,8.60
2022-07-25T21:24:12.614Z,9.40
2022-07-25T21:26:42.195Z,10.40
2022-07-25T21:29:10.858Z,12.67
2022-07-25T21:31:39.683Z,11.83
2022-07-25T21:34:08.213Z,9.73
2022-07-25T21:36:36.659Z,11.50
2022-07-25T21:39:05.825Z,12.77
2022-07-25T21:41:34.157Z,8.90
2022-07-25T21:44:04.033Z,13.63
2022-07-25T21:46:32.344Z,9.03
2022-07-25T21:49:17.967Z,7.90
2022-07-25T21:52:09.042Z,10.80
2022-07-25T21:54:41.991Z,8.90
2022-07-25T21:57:13.233Z,7.37
2022-07-25T21:59:44.264Z,9.23
2022-07-25T22:02:13.535Z,14.30
2022-07-25T22:04:41.822Z,10.60
2022-07-25T22:07:10.035Z,9.67
2022-07-25T22:09:38.773Z,10.63
2022-07-25T22:12:07.813Z,9.33
2022-07-25T22:14:38.292Z,11.77
2022-07-25T22:17:08.626Z,10.33
2022-07-25T22:19:36.879Z,14.47
2022-07-25T22:22:08.407Z,9.70
2022-07-25T22:24:39.961Z,7.33
2022-07-25T22:27:14.800Z,11.50
2022-07-25T22:29:43.061Z,8.87
2022-07-25T22:32:13.564Z,12.13
2022-07-25T22:34:41.652Z,9.77
2022-07-25T22:37:09.843Z,11.47
2022-07-25T22:39:38.358Z,13.60
2022-07-25T22:42:06.815Z,13.70
2022-07-25T22:44:34.933Z,10.43
2022-07-25T22:47:03.133Z,10.27
2022-07-25T22:49:32.615Z,14.03
2022-07-25T22:52:00.814Z,10.07
2022-07-25T22:54:28.929Z,10.43
2022-07-25T22:56:57.009Z,9.43
2022-07-25T22:59:25.226Z,10.57
2022-07-25T23:01:53.993Z,8.07
2022-07-25T23:04:22.207Z,10.60
2022-07-25T23:06:51.882Z,13.03
2022-07-25T23:09:20.159Z,10.00
2022-07-25T23:11:48.190Z,13.93
2022-07-25T23:14:16.297Z,10.70
2022-07-25T23:16:44.600Z,13.30
2022-07-25T23:19:12.764Z,9.73
2022-07-25T23:21:41.019Z,15.27
2022-07-25T23:24:10.624Z,14.53
2022-07-25T23:26:38.620Z,14.13
2022-07-25T23:29:07.145Z,13.97
2022-07-25T23:31:35.644Z,13.97
2022-07-25T23:34:04.814Z,14.10
2022-07-25T23:36:33.024Z,14.43
2022-07-25T23:39:01.258Z,13.30
2022-07-25T23:41:30.616Z,16.97
2022-07-25T23:44:00.743Z,9.60
2022-07-25T23:46:31.134Z,19.23
2022-07-25T23:48:59.973Z,10.07
2022-07-25T23:51:28.208Z,14.53
2022-07-25T23:53:56.690Z,13.87
2022-07-25T23:56:24.869Z,13.10
2022-07-25T23:58:54.488Z,11.43
